createdAt,value
2018-09-13T00:00:05.351Z,10.03
2018-09-13T00:02:36.405Z,9.13
2018-09-13T00:07:41.189Z,8.30
2018-09-13T00:10:10.230Z,9.18
2018-09-13T00:12:39.268Z,8.77
2018-09-13T00:15:08.320Z,9.77
2018-09-13T00:17:37.363Z,8.37
2018-09-13T00:20:06.403Z,8.93
2018-09-13T00:22:36.379Z,8.57
2018-09-13T00:27:41.143Z,10.02
2018-09-13T00:30:10.208Z,9.00
2018-09-13T00:32:39.250Z,8.73
2018-09-13T00:37:44.081Z,9.50
2018-09-13T00:40:13.128Z,9.38
2018-09-13T00:42:44.120Z,9.87
2018-09-13T00:45:14.128Z,8.50
2018-09-13T00:50:20.836Z,11.23
2018-09-13T00:52:49.891Z,9.15
2018-09-13T00:55:18.948Z,9.00
2018-09-13T00:57:49.983Z,9.53
2018-09-13T01:00:19.028Z,9.00
2018-09-13T01:02:48.078Z,8.83
2018-09-13T01:05:17.149Z,9.40
2018-09-13T01:07:46.190Z,10.53
2018-09-13T01:10:15.246Z,8.03
2018-09-13T01:12:45.276Z,9.00
2018-09-13T01:17:50.054Z,8.40
2018-09-13T01:20:20.049Z,9.27
2018-09-13T01:25:24.820Z,10.30
2018-09-13T01:27:53.861Z,8.80
2018-09-13T01:30:22.917Z,8.47
2018-09-13T01:32:51.975Z,9.30
2018-09-13T01:35:21.028Z,7.80
2018-09-13T01:43:01.530Z,9.25
2018-09-13T01:48:07.367Z,9.40
2018-09-13T01:50:36.417Z,10.63
2018-09-13T01:53:05.465Z,9.67
2018-09-13T01:55:34.588Z,10.73
2018-09-13T01:58:03.614Z,9.07
2018-09-13T02:00:33.577Z,9.37
2018-09-13T02:08:14.216Z,10.30
2018-09-13T02:14:08.954Z,9.15
2018-09-13T02:16:37.984Z,9.90
2018-09-13T02:19:14.441Z,9.07
2018-09-13T02:24:19.204Z,11.47
2018-09-13T02:26:50.235Z,10.32
2018-09-13T02:31:55.006Z,10.40
2018-09-13T02:36:59.762Z,8.70
2018-09-13T02:39:32.226Z,9.30
2018-09-13T02:42:01.297Z,8.20
2018-09-13T02:44:30.354Z,8.67
2018-09-13T02:46:59.404Z,8.73
2018-09-13T02:52:05.184Z,8.90
2018-09-13T02:54:34.228Z,9.40
2018-09-13T02:57:03.264Z,8.90
2018-09-13T02:59:32.324Z,9.57
2018-09-13T03:02:03.325Z,11.07
2018-09-13T03:04:32.392Z,9.63
2018-09-13T03:07:01.433Z,9.30
2018-09-13T03:09:31.433Z,8.43
2018-09-13T03:14:37.224Z,10.50
2018-09-13T03:17:06.277Z,10.48
2018-09-13T03:19:35.334Z,10.20
2018-09-13T03:22:05.315Z,9.47
2018-09-13T03:27:10.102Z,10.18
2018-09-13T03:29:39.151Z,8.27
2018-09-13T03:32:08.201Z,13.13
2018-09-13T03:34:41.203Z,10.32
2018-09-13T03:37:10.279Z,9.77
2018-09-13T03:39:40.285Z,10.07
2018-09-13T03:42:10.312Z,9.90
2018-09-13T03:45:02.833Z,8.77
2018-09-13T03:47:31.858Z,8.97
2018-09-13T03:52:37.717Z,10.52
2018-09-13T03:55:06.779Z,9.40
2018-09-13T03:57:35.853Z,9.63
2018-09-13T04:00:04.887Z,8.77
2018-09-13T04:02:33.952Z,9.77
2018-09-13T04:05:07.394Z,9.20
2018-09-13T04:10:12.300Z,9.70
2018-09-13T04:12:41.353Z,10.40
2018-09-13T04:17:47.045Z,10.20
2018-09-13T04:20:16.080Z,10.35
2018-09-13T04:22:45.210Z,9.87
2018-09-13T04:25:15.241Z,10.30
2018-09-13T04:27:44.290Z,9.63
2018-09-13T04:30:13.345Z,10.20
2018-09-13T04:32:43.517Z,14.25
2018-09-13T04:35:12.562Z,10.23
2018-09-13T04:37:43.608Z,10.90
2018-09-13T04:40:12.687Z,9.80
2018-09-13T04:42:41.740Z,9.63
2018-09-13T04:47:46.587Z,10.07
2018-09-13T04:52:52.441Z,9.90
2018-09-13T04:55:23.484Z,9.68
2018-09-13T04:57:52.545Z,10.90
2018-09-13T05:00:21.621Z,9.50
2018-09-13T05:02:50.675Z,11.97
2018-09-13T05:05:20.719Z,10.53
2018-09-13T05:07:49.797Z,10.10
2018-09-13T05:12:54.661Z,9.52
2018-09-13T05:15:23.617Z,11.52
2018-09-13T05:17:52.760Z,11.43
2018-09-13T05:20:21.817Z,10.23
2018-09-13T05:22:51.856Z,9.17
2018-09-13T05:25:20.913Z,10.80
2018-09-13T05:27:49.952Z,9.83
2018-09-13T05:32:55.757Z,9.25
2018-09-13T05:35:24.801Z,8.97
2018-09-13T05:37:53.840Z,8.83
2018-09-13T05:40:22.915Z,8.87
2018-09-13T05:42:51.963Z,13.30
2018-09-13T05:45:21.179Z,11.67
2018-09-13T05:47:50.230Z,9.77
2018-09-13T05:50:19.272Z,9.37
2018-09-13T05:55:24.110Z,8.45
2018-09-13T05:57:53.148Z,8.20
2018-09-13T06:00:25.540Z,7.97
2018-09-13T06:02:55.580Z,8.55
2018-09-13T06:05:29.278Z,8.93
2018-09-13T06:07:58.424Z,8.03
2018-09-13T06:10:27.446Z,9.50
2018-09-13T06:12:59.545Z,9.57
2018-09-13T06:15:30.609Z,8.30
2018-09-13T06:18:00.639Z,8.17
2018-09-13T06:20:29.656Z,7.83
2018-09-13T06:23:02.909Z,7.83
2018-09-13T06:25:33.955Z,8.13
2018-09-13T06:28:03.020Z,8.20
2018-09-13T06:30:33.061Z,9.90
2018-09-13T06:33:02.127Z,8.30
2018-09-13T06:35:31.172Z,8.73
2018-09-13T06:38:02.224Z,10.20
2018-09-13T06:40:38.567Z,11.00
2018-09-13T06:43:07.617Z,9.43
2018-09-13T06:45:38.609Z,9.40
2018-09-13T06:48:09.696Z,12.20
2018-09-13T06:50:43.890Z,9.10
2018-09-13T06:53:13.959Z,8.97
2018-09-13T06:55:44.947Z,10.10
2018-09-13T06:58:14.967Z,11.03
2018-09-13T07:00:44.020Z,11.20
2018-09-13T07:03:14.069Z,10.50
2018-09-13T07:05:45.121Z,10.80
2018-09-13T07:08:14.176Z,8.43
2018-09-13T07:10:44.132Z,7.93
2018-09-13T07:15:49.129Z,9.43
2018-09-13T07:18:18.155Z,7.77
2018-09-13T07:20:48.102Z,7.80
2018-09-13T07:23:17.185Z,8.55
2018-09-13T07:25:46.716Z,8.57
2018-09-13T07:28:15.805Z,7.28
2018-09-13T07:30:44.867Z,7.87
2018-09-13T07:33:14.831Z,8.07
2018-09-13T07:35:43.888Z,7.93
2018-09-13T07:38:12.925Z,8.30
2018-09-13T07:40:41.985Z,7.90
2018-09-13T07:43:11.925Z,7.03
2018-09-13T07:45:40.967Z,8.00
2018-09-13T07:48:10.020Z,9.10
2018-09-13T07:50:39.077Z,7.50
2018-09-13T07:55:43.835Z,7.72
2018-09-13T07:58:16.066Z,8.13
2018-09-13T08:00:46.106Z,6.50
2018-09-13T08:03:15.200Z,7.00
2018-09-13T08:05:44.247Z,7.23
2018-09-13T08:08:13.353Z,9.37
2018-09-13T08:10:42.399Z,7.13
2018-09-13T08:13:11.454Z,7.93
2018-09-13T08:15:40.643Z,6.70
2018-09-13T08:18:09.682Z,7.10
2018-09-13T08:20:38.728Z,8.67
2018-09-13T08:23:07.787Z,6.37
2018-09-13T08:25:37.808Z,7.33
2018-09-13T08:28:06.858Z,9.53
2018-09-13T08:30:35.901Z,8.90
2018-09-13T08:33:04.992Z,8.30
2018-09-13T08:38:09.933Z,9.10
2018-09-13T08:40:39.009Z,8.85
2018-09-13T08:43:08.137Z,6.60
2018-09-13T08:45:37.108Z,7.13
2018-09-13T08:48:06.156Z,6.43
2018-09-13T08:50:35.230Z,9.00
2018-09-13T08:53:07.323Z,6.50
2018-09-13T08:58:12.099Z,7.22
2018-09-13T09:00:43.128Z,8.43
2018-09-13T09:03:13.133Z,6.30
2018-09-13T09:08:18.011Z,7.35
2018-09-13T09:10:54.884Z,7.25
2018-09-13T09:13:24.911Z,5.83
2018-09-13T09:15:53.946Z,8.13
2018-09-13T09:21:06.302Z,6.72
2018-09-13T09:23:35.357Z,7.00
2018-09-13T09:26:06.358Z,5.87
2018-09-13T09:28:37.388Z,5.60
2018-09-13T09:33:42.280Z,6.85
2018-09-13T09:36:15.596Z,5.10
2018-09-13T09:41:20.411Z,4.80
2018-09-13T09:43:49.469Z,4.93
2018-09-13T09:46:18.663Z,6.20
2018-09-13T09:48:47.685Z,5.40
2018-09-13T09:51:20.168Z,5.90
2018-09-13T09:53:49.216Z,5.27
2018-09-13T09:56:20.207Z,5.63
2018-09-13T09:58:50.206Z,4.47
2018-09-13T10:01:19.287Z,4.90
2018-09-13T10:03:48.313Z,6.83
2018-09-13T10:08:53.219Z,5.12
2018-09-13T10:11:23.196Z,4.95
2018-09-13T10:13:52.248Z,8.23
2018-09-13T10:18:58.099Z,4.87
2018-09-13T10:38:52.487Z,7.53
2018-09-13T10:47:16.209Z,4.22
2018-09-13T10:52:21.124Z,5.00
2018-09-13T10:54:52.085Z,4.97
2018-09-13T10:59:59.340Z,4.32
2018-09-13T11:07:39.943Z,6.60
2018-09-13T11:10:09.004Z,3.40
2018-09-13T11:12:39.051Z,6.30
2018-09-13T11:17:43.893Z,5.10
2018-09-13T11:20:12.961Z,5.80
2018-09-13T11:22:42.014Z,7.60
2018-09-13T11:25:11.063Z,5.03
2018-09-13T11:27:40.108Z,4.43
2018-09-13T11:32:44.935Z,5.72
2018-09-13T11:35:14.164Z,6.40
2018-09-13T11:45:30.542Z,6.43
2018-09-13T11:50:35.356Z,4.68
2018-09-13T11:53:04.432Z,5.03
2018-09-13T11:55:36.498Z,5.00
2018-09-13T11:58:05.544Z,7.00
2018-09-13T12:00:34.609Z,4.23
2018-09-13T12:03:05.629Z,5.10
2018-09-13T12:05:35.670Z,5.83
2018-09-13T12:08:05.667Z,4.57
2018-09-13T12:10:34.720Z,5.57
2018-09-13T12:18:15.377Z,5.57
2018-09-13T12:20:45.409Z,6.13
2018-09-13T12:23:14.455Z,4.13
2018-09-13T12:25:44.520Z,6.03
2018-09-13T12:28:14.533Z,4.60
2018-09-13T12:30:44.545Z,4.87
2018-09-13T12:33:13.604Z,4.97
2018-09-13T12:38:18.449Z,6.22
2018-09-13T12:43:23.425Z,4.82
2018-09-13T12:45:52.468Z,5.07
2018-09-13T12:48:21.524Z,5.10
2018-09-13T12:50:50.670Z,4.30
2018-09-13T12:53:20.613Z,5.03
2018-09-13T12:55:50.599Z,5.03
2018-09-13T12:58:20.605Z,4.30
2018-09-13T13:00:53.163Z,6.07
2018-09-13T13:06:04.090Z,6.40
2018-09-13T13:08:35.177Z,5.12
2018-09-13T13:11:06.767Z,7.17
2018-09-13T13:16:11.197Z,4.80
2018-09-13T13:18:40.243Z,4.57
2018-09-13T13:21:10.249Z,7.80
2018-09-13T13:23:39.324Z,5.33
2018-09-13T13:28:44.237Z,5.82
2018-09-13T13:33:51.104Z,6.30
2018-09-13T13:36:20.178Z,5.40
2018-09-13T13:38:51.146Z,5.30
2018-09-13T13:41:24.125Z,4.73
2018-09-13T13:44:06.680Z,6.30
2018-09-13T13:49:11.500Z,6.72
2018-09-13T13:51:40.536Z,6.07
2018-09-13T13:54:22.830Z,5.07
2018-09-13T13:56:51.887Z,5.57
2018-09-13T13:59:21.908Z,6.10
2018-09-13T14:01:51.073Z,6.33
2018-09-13T14:04:20.136Z,4.50
2018-09-13T14:06:51.151Z,9.68
2018-09-13T14:09:20.181Z,5.37
2018-09-13T14:11:50.164Z,4.70
2018-09-13T14:14:20.198Z,4.83
2018-09-13T14:16:49.241Z,4.23
2018-09-13T14:19:18.290Z,3.93
2018-09-13T14:21:47.344Z,5.67
2018-09-13T14:24:16.409Z,5.00
2018-09-13T14:26:45.460Z,5.00
2018-09-13T14:29:15.519Z,5.77
2018-09-13T14:31:46.532Z,4.03
2018-09-13T14:34:19.118Z,5.23
2018-09-13T14:36:48.173Z,4.50
2018-09-13T14:39:17.413Z,6.57
2018-09-13T14:41:46.477Z,4.80
2018-09-13T14:44:15.531Z,5.60
2018-09-13T14:46:44.593Z,7.37
2018-09-13T14:49:13.632Z,4.70
2018-09-13T14:51:42.706Z,6.75
2018-09-13T14:54:11.745Z,6.20
2018-09-13T14:59:16.601Z,4.90
2018-09-13T15:04:22.443Z,4.60
2018-09-13T15:06:51.521Z,5.17
2018-09-13T15:09:20.586Z,8.77
2018-09-13T15:11:49.643Z,5.30
2018-09-13T15:14:18.695Z,6.80
2018-09-13T15:19:28.112Z,6.93
2018-09-13T15:21:57.166Z,5.07
2018-09-13T15:24:26.260Z,5.00
2018-09-13T15:26:55.288Z,5.23
2018-09-13T15:32:00.064Z,6.35
2018-09-13T15:34:29.100Z,5.07
2018-09-13T15:36:58.250Z,4.37
2018-09-13T15:39:27.296Z,3.47
2018-09-13T15:41:56.360Z,3.80
2018-09-13T15:44:27.426Z,5.50
2018-09-13T15:46:58.418Z,3.03
2018-09-13T15:49:29.461Z,2.77
2018-09-13T15:52:00.502Z,4.03
2018-09-13T15:54:29.585Z,4.43
2018-09-13T15:59:35.653Z,3.42
2018-09-13T16:02:05.618Z,3.83
2018-09-13T16:04:34.661Z,3.70
2018-09-13T16:07:04.834Z,4.20
2018-09-13T16:12:09.660Z,3.40
2018-09-13T16:14:38.773Z,3.20
2018-09-13T16:17:07.858Z,4.67
2018-09-13T16:22:13.651Z,5.05
2018-09-13T16:24:42.699Z,5.20
2018-09-13T16:27:11.748Z,4.60
2018-09-13T16:29:40.801Z,5.77
2018-09-13T16:32:09.836Z,10.70
2018-09-13T16:37:14.627Z,7.78
2018-09-13T16:40:00.469Z,11.50
2018-09-13T16:42:35.051Z,7.80
2018-09-13T16:47:59.492Z,8.45
2018-09-13T16:53:04.360Z,8.55
2018-09-13T16:55:33.440Z,8.85
2018-09-13T17:00:38.230Z,9.85
2018-09-13T17:03:08.223Z,9.98
2018-09-13T17:05:38.248Z,10.73
2018-09-13T17:08:09.213Z,9.07
2018-09-13T17:13:14.090Z,9.75
2018-09-13T17:15:43.145Z,11.45
2018-09-13T17:18:13.160Z,11.00
2018-09-13T17:20:42.240Z,13.30
2018-09-13T17:23:11.324Z,10.80
2018-09-13T17:25:41.326Z,11.77
2018-09-13T17:28:11.304Z,9.57
2018-09-13T17:30:40.363Z,10.23
2018-09-13T17:33:09.406Z,9.90
2018-09-13T17:35:40.436Z,9.85
2018-09-13T17:38:14.956Z,7.70
2018-09-13T17:40:44.014Z,8.73
2018-09-13T17:43:13.072Z,10.63
2018-09-13T17:45:42.129Z,9.73
2018-09-13T17:48:11.164Z,9.30
2018-09-13T17:50:42.201Z,8.23
2018-09-13T17:53:11.245Z,11.33
2018-09-13T17:55:40.453Z,8.27
2018-09-13T18:03:24.789Z,13.13
2018-09-13T18:05:58.502Z,9.80
2018-09-13T18:08:28.527Z,12.17
2018-09-13T18:11:01.139Z,10.10
2018-09-13T18:13:33.905Z,11.60
2018-09-13T18:18:38.756Z,11.25
2018-09-13T18:21:08.754Z,10.07
2018-09-13T18:23:38.829Z,8.43
2018-09-13T18:26:07.829Z,9.70
2018-09-13T18:31:15.637Z,11.90
2018-09-13T18:33:44.754Z,10.80
2018-09-13T18:36:14.810Z,11.23
2018-09-13T18:38:43.875Z,13.37
2018-09-13T18:41:13.060Z,9.20
2018-09-13T18:43:42.114Z,12.07
2018-09-13T18:46:16.185Z,12.60
2018-09-13T18:48:47.212Z,12.95
2018-09-13T18:51:17.180Z,12.03
2018-09-13T18:56:22.466Z,13.38
2018-09-13T18:58:51.525Z,15.53
2018-09-13T19:01:20.583Z,10.30
2018-09-13T19:03:50.584Z,8.87
2018-09-13T19:06:19.633Z,9.90
2018-09-13T19:08:48.693Z,8.00
2018-09-13T19:16:29.405Z,10.32
2018-09-13T19:18:58.468Z,12.00
2018-09-13T19:21:27.517Z,9.53
2018-09-13T19:24:05.192Z,7.93
2018-09-13T19:26:34.225Z,7.77
2018-09-13T19:29:03.303Z,7.67
2018-09-13T19:31:34.314Z,7.60
2018-09-13T19:34:03.376Z,9.33
2018-09-13T19:36:43.959Z,7.20
2018-09-13T19:39:13.669Z,8.23
2018-09-13T19:41:42.729Z,9.40
2018-09-13T19:44:11.892Z,9.13
2018-09-13T19:46:40.909Z,7.30
2018-09-13T19:49:09.979Z,9.10
2018-09-13T19:51:39.062Z,7.80
2018-09-13T19:54:08.103Z,7.73
2018-09-13T20:01:52.161Z,9.27
2018-09-13T20:04:21.218Z,7.67
2018-09-13T20:06:50.267Z,8.70
2018-09-13T20:09:20.289Z,7.37
2018-09-13T20:11:53.163Z,8.43
2018-09-13T20:16:58.949Z,9.70
2018-09-13T20:19:28.009Z,9.20
2018-09-13T20:21:57.067Z,8.37
2018-09-13T20:24:26.195Z,7.40
2018-09-13T20:26:57.210Z,10.73
2018-09-13T20:32:02.054Z,7.95
2018-09-13T20:34:31.120Z,9.63
2018-09-13T20:37:00.176Z,7.87
2018-09-13T20:39:30.259Z,7.07
2018-09-13T20:41:59.316Z,6.67
2018-09-13T20:44:28.426Z,6.87
2018-09-13T20:46:57.493Z,7.70
2018-09-13T20:49:26.563Z,8.52
2018-09-13T20:51:56.565Z,6.30
2018-09-13T20:54:25.636Z,8.20
2018-09-13T20:56:54.721Z,6.90
2018-09-13T21:02:00.529Z,7.37
2018-09-13T21:07:06.316Z,6.87
2018-09-13T21:09:39.709Z,6.77
2018-09-13T21:12:09.670Z,5.30
2018-09-13T21:14:38.709Z,5.37
2018-09-13T21:17:07.837Z,5.43
2018-09-13T21:19:36.823Z,6.23
2018-09-13T21:22:06.842Z,6.60
2018-09-13T21:27:12.624Z,6.60
2018-09-13T21:29:41.708Z,5.77
2018-09-13T21:32:10.706Z,4.73
2018-09-13T21:34:39.761Z,4.97
2018-09-13T21:37:08.801Z,4.77
2018-09-13T21:42:13.581Z,5.30
2018-09-13T21:44:43.584Z,6.93
2018-09-13T21:49:48.347Z,6.12
2018-09-13T21:52:17.396Z,5.45
2018-09-13T21:54:46.440Z,6.00
2018-09-13T21:57:17.468Z,5.57
2018-09-13T22:02:22.244Z,6.40
2018-09-13T22:04:51.279Z,5.50
2018-09-13T22:07:20.329Z,5.87
2018-09-13T22:12:25.200Z,7.68
2018-09-13T22:17:30.062Z,6.93
2018-09-13T22:19:59.142Z,7.78
2018-09-13T22:25:05.913Z,7.57
2018-09-13T22:27:34.961Z,7.85
2018-09-13T22:30:04.024Z,5.60
2018-09-13T22:32:33.073Z,6.17
2018-09-13T22:35:03.143Z,5.70
2018-09-13T22:37:32.206Z,7.65
2018-09-13T22:40:01.266Z,6.70
2018-09-13T22:45:09.157Z,7.03
2018-09-13T22:47:38.212Z,5.40
2018-09-13T22:50:08.277Z,6.10
2018-09-13T22:52:37.413Z,7.60
2018-09-13T22:55:06.469Z,8.30
2018-09-13T22:57:37.518Z,6.40
2018-09-13T23:00:06.564Z,6.90
2018-09-13T23:02:37.583Z,7.37
2018-09-13T23:05:07.580Z,6.37
2018-09-13T23:07:37.607Z,6.40
2018-09-13T23:10:06.657Z,12.17
2018-09-13T23:12:35.724Z,7.23
2018-09-13T23:15:04.809Z,9.00
2018-09-13T23:17:33.918Z,6.87
2018-09-13T23:20:02.893Z,6.37
2018-09-13T23:25:07.664Z,8.23
2018-09-13T23:30:14.445Z,8.80
2018-09-13T23:32:43.494Z,7.70
2018-09-13T23:35:13.572Z,8.10
2018-09-13T23:40:18.594Z,11.43
2018-09-13T23:42:47.524Z,12.27
2018-09-13T23:45:18.575Z,16.37
2018-09-13T23:47:47.651Z,19.10
2018-09-13T23:50:18.624Z,17.13
2018-09-13T23:55:23.475Z,25.00
